sensor_id;sensor_type;location;lat;lon;timestamp;P1;durP1;ratioP1;P2;durP2;ratioP2
35434;SDS011;21556;55.782;37.528;2022-12-18T00:01:01;11.90;;;7.57;;
35434;SDS011;21556;55.782;37.528;2022-12-18T00:03:32;11.90;;;7.23;;
35434;SDS011;21556;55.782;37.528;2022-12-18T00:05:58;10.83;;;7.83;;
35434;SDS011;21556;55.782;37.528;2022-12-18T00:08:24;11.13;;;7.40;;
35434;SDS011;21556;55.782;37.528;2022-12-18T00:10:50;12.03;;;8.10;;
35434;SDS011;21556;55.782;37.528;2022-12-18T00:13:16;11.73;;;7.57;;
35434;SDS011;21556;55.782;37.528;2022-12-18T00:15:42;11.13;;;8.03;;
35434;SDS011;21556;55.782;37.528;2022-12-18T00:18:08;11.50;;;7.93;;
35434;SDS011;21556;55.782;37.528;2022-12-18T00:20:37;10.93;;;7.70;;
35434;SDS011;21556;55.782;37.528;2022-12-18T00:23:05;10.37;;;7.57;;
35434;SDS011;21556;55.782;37.528;2022-12-18T00:25:33;10.87;;;7.10;;
35434;SDS011;21556;55.782;37.528;2022-12-18T00:28:00;10.85;;;7.53;;
35434;SDS011;21556;55.782;37.528;2022-12-18T00:30:26;10.27;;;7.23;;
35434;SDS011;21556;55.782;37.528;2022-12-18T00:32:52;10.30;;;6.90;;
35434;SDS011;21556;55.782;37.528;2022-12-18T00:35:18;11.57;;;8.00;;
35434;SDS011;21556;55.782;37.528;2022-12-18T00:37:45;10.33;;;7.67;;
35434;SDS011;21556;55.782;37.528;2022-12-18T00:40:11;13.00;;;7.17;;
35434;SDS011;21556;55.782;37.528;2022-12-18T00:42:38;8.43;;;5.00;;
35434;SDS011;21556;55.782;37.528;2022-12-18T00:45:30;8.67;;;6.40;;
35434;SDS011;21556;55.782;37.528;2022-12-18T00:47:56;12.13;;;8.13;;
35434;SDS011;21556;55.782;37.528;2022-12-18T00:50:23;10.07;;;6.87;;
35434;SDS011;21556;55.782;37.528;2022-12-18T00:52:50;11.85;;;8.23;;
35434;SDS011;21556;55.782;37.528;2022-12-18T00:55:16;9.90;;;6.93;;
35434;SDS011;21556;55.782;37.528;2022-12-18T00:57:42;11.10;;;7.87;;
35434;SDS011;21556;55.782;37.528;2022-12-18T01:00:10;10.90;;;7.70;;
35434;SDS011;21556;55.782;37.528;2022-12-18T01:02:38;9.00;;;6.53;;
35434;SDS011;21556;55.782;37.528;2022-12-18T01:05:06;9.20;;;6.97;;
35434;SDS011;21556;55.782;37.528;2022-12-18T01:07:34;11.38;;;5.90;;
35434;SDS011;21556;55.782;37.528;2022-12-18T01:10:02;10.70;;;7.10;;
35434;SDS011;21556;55.782;37.528;2022-12-18T01:12:29;12.90;;;7.60;;
35434;SDS011;21556;55.782;37.528;2022-12-18T01:14:55;7.37;;;5.63;;
35434;SDS011;21556;55.782;37.528;2022-12-18T01:17:21;8.67;;;6.50;;
35434;SDS011;21556;55.782;37.528;2022-12-18T01:19:46;9.43;;;6.43;;
35434;SDS011;21556;55.782;37.528;2022-12-18T01:22:12;8.73;;;5.87;;
35434;SDS011;21556;55.782;37.528;2022-12-18T01:24:38;9.50;;;6.63;;
35434;SDS011;21556;55.782;37.528;2022-12-18T01:27:04;8.97;;;6.50;;
35434;SDS011;21556;55.782;37.528;2022-12-18T01:29:30;10.60;;;6.93;;
35434;SDS011;21556;55.782;37.528;2022-12-18T01:31:56;9.40;;;6.57;;
35434;SDS011;21556;55.782;37.528;2022-12-18T01:34:25;10.87;;;6.97;;
35434;SDS011;21556;55.782;37.528;2022-12-18T01:36:51;10.40;;;6.87;;
35434;SDS011;21556;55.782;37.528;2022-12-18T01:39:17;9.40;;;6.70;;
35434;SDS011;21556;55.782;37.528;2022-12-18T01:41:44;7.73;;;6.33;;
35434;SDS011;21556;55.782;37.528;2022-12-18T01:50:00;9.45;;;6.22;;
35434;SDS011;21556;55.782;37.528;2022-12-18T01:52:30;9.00;;;6.50;;
35434;SDS011;21556;55.782;37.528;2022-12-18T01:54:58;9.55;;;6.85;;
35434;SDS011;21556;55.782;37.528;2022-12-18T01:57:26;11.40;;;7.43;;
35434;SDS011;21556;55.782;37.528;2022-12-18T01:59:54;9.95;;;6.57;;
35434;SDS011;21556;55.782;37.528;2022-12-18T02:02:24;9.13;;;6.43;;
35434;SDS011;21556;55.782;37.528;2022-12-18T02:04:53;8.80;;;6.13;;
35434;SDS011;21556;55.782;37.528;2022-12-18T02:07:21;9.57;;;6.20;;
35434;SDS011;21556;55.782;37.528;2022-12-18T02:10:04;9.57;;;6.40;;
35434;SDS011;21556;55.782;37.528;2022-12-18T02:15:17;9.03;;;6.17;;
35434;SDS011;21556;55.782;37.528;2022-12-18T02:17:52;7.50;;;5.33;;
35434;SDS011;21556;55.782;37.528;2022-12-18T02:26:07;9.10;;;6.30;;
35434;SDS011;21556;55.782;37.528;2022-12-18T02:31:26;7.80;;;5.10;;
35434;SDS011;21556;55.782;37.528;2022-12-18T02:33:58;7.70;;;5.40;;
35434;SDS011;21556;55.782;37.528;2022-12-18T02:36:32;10.90;;;6.83;;
35434;SDS011;21556;55.782;37.528;2022-12-18T02:39:00;7.70;;;5.18;;
35434;SDS011;21556;55.782;37.528;2022-12-18T02:41:27;7.30;;;5.50;;
35434;SDS011;21556;55.782;37.528;2022-12-18T02:43:56;6.72;;;5.13;;
35434;SDS011;21556;55.782;37.528;2022-12-18T02:49:12;9.07;;;6.33;;
35434;SDS011;21556;55.782;37.528;2022-12-18T02:52:22;9.60;;;5.70;;
35434;SDS011;21556;55.782;37.528;2022-12-18T02:57:54;7.47;;;5.93;;
35434;SDS011;21556;55.782;37.528;2022-12-18T03:00:36;9.67;;;6.17;;
35434;SDS011;21556;55.782;37.528;2022-12-18T03:05:57;9.50;;;6.23;;
35434;SDS011;21556;55.782;37.528;2022-12-18T03:08:28;7.33;;;5.47;;
35434;SDS011;21556;55.782;37.528;2022-12-18T03:11:04;8.10;;;5.33;;
35434;SDS011;21556;55.782;37.528;2022-12-18T03:13:40;9.17;;;6.17;;
35434;SDS011;21556;55.782;37.528;2022-12-18T03:16:12;8.23;;;5.43;;
35434;SDS011;21556;55.782;37.528;2022-12-18T03:21:33;6.95;;;5.03;;
35434;SDS011;21556;55.782;37.528;2022-12-18T03:24:05;7.33;;;5.63;;
35434;SDS011;21556;55.782;37.528;2022-12-18T03:26:34;7.33;;;4.90;;
35434;SDS011;21556;55.782;37.528;2022-12-18T03:29:04;7.80;;;5.32;;
35434;SDS011;21556;55.782;37.528;2022-12-18T03:31:36;7.63;;;5.00;;
35434;SDS011;21556;55.782;37.528;2022-12-18T03:34:06;9.10;;;5.80;;
35434;SDS011;21556;55.782;37.528;2022-12-18T03:36:44;6.50;;;5.50;;
35434;SDS011;21556;55.782;37.528;2022-12-18T03:39:11;9.47;;;5.87;;
35434;SDS011;21556;55.782;37.528;2022-12-18T03:44:45;10.23;;;5.43;;
35434;SDS011;21556;55.782;37.528;2022-12-18T03:47:34;5.90;;;4.93;;
35434;SDS011;21556;55.782;37.528;2022-12-18T03:50:10;8.43;;;5.07;;
35434;SDS011;21556;55.782;37.528;2022-12-18T03:55:10;7.27;;;4.90;;
35434;SDS011;21556;55.782;37.528;2022-12-18T04:00:09;7.13;;;4.53;;
35434;SDS011;21556;55.782;37.528;2022-12-18T04:02:52;6.67;;;5.00;;
35434;SDS011;21556;55.782;37.528;2022-12-18T04:05:28;5.97;;;4.70;;
35434;SDS011;21556;55.782;37.528;2022-12-18T04:07:57;7.13;;;4.90;;
35434;SDS011;21556;55.782;37.528;2022-12-18T04:10:24;8.00;;;5.50;;
35434;SDS011;21556;55.782;37.528;2022-12-18T04:12:55;9.07;;;5.43;;
35434;SDS011;21556;55.782;37.528;2022-12-18T04:15:23;6.70;;;4.87;;
35434;SDS011;21556;55.782;37.528;2022-12-18T04:17:49;7.60;;;4.97;;
35434;SDS011;21556;55.782;37.528;2022-12-18T04:20:19;7.60;;;5.57;;
35434;SDS011;21556;55.782;37.528;2022-12-18T04:22:45;6.67;;;4.67;;
35434;SDS011;21556;55.782;37.528;2022-12-18T04:25:12;8.30;;;4.80;;
35434;SDS011;21556;55.782;37.528;2022-12-18T04:27:48;8.27;;;5.37;;
35434;SDS011;21556;55.782;37.528;2022-12-18T04:30:14;7.83;;;4.87;;
35434;SDS011;21556;55.782;37.528;2022-12-18T04:32:40;7.03;;;4.50;;
35434;SDS011;21556;55.782;37.528;2022-12-18T04:35:09;6.53;;;4.97;;
35434;SDS011;21556;55.782;37.528;2022-12-18T04:37:37;7.03;;;5.37;;
35434;SDS011;21556;55.782;37.528;2022-12-18T04:40:07;6.63;;;4.90;;
35434;SDS011;21556;55.782;37.528;2022-12-18T04:42:39;8.13;;;5.40;;
35434;SDS011;21556;55.782;37.528;2022-12-18T04:45:06;5.50;;;4.30;;
35434;SDS011;21556;55.782;37.528;2022-12-18T04:47:32;9.60;;;5.27;;
35434;SDS011;21556;55.782;37.528;2022-12-18T04:49:58;7.23;;;4.97;;
35434;SDS011;21556;55.782;37.528;2022-12-18T04:52:24;7.70;;;5.43;;
35434;SDS011;21556;55.782;37.528;2022-12-18T04:54:49;8.97;;;6.03;;
35434;SDS011;21556;55.782;37.528;2022-12-18T04:57:15;8.90;;;4.87;;
35434;SDS011;21556;55.782;37.528;2022-12-18T04:59:43;7.28;;;5.38;;
35434;SDS011;21556;55.782;37.528;2022-12-18T05:02:09;9.03;;;5.30;;
35434;SDS011;21556;55.782;37.528;2022-12-18T05:04:35;7.97;;;5.73;;
35434;SDS011;21556;55.782;37.528;2022-12-18T05:07:01;8.50;;;6.43;;
35434;SDS011;21556;55.782;37.528;2022-12-18T05:09:27;8.63;;;5.53;;
35434;SDS011;21556;55.782;37.528;2022-12-18T05:11:53;7.03;;;5.53;;
35434;SDS011;21556;55.782;37.528;2022-12-18T05:14:19;7.67;;;5.27;;
35434;SDS011;21556;55.782;37.528;2022-12-18T05:16:44;10.00;;;5.93;;
35434;SDS011;21556;55.782;37.528;2022-12-18T05:19:10;7.93;;;5.37;;
35434;SDS011;21556;55.782;37.528;2022-12-18T05:21:36;9.03;;;5.47;;
35434;SDS011;21556;55.782;37.528;2022-12-18T05:24:02;7.67;;;5.43;;
35434;SDS011;21556;55.782;37.528;2022-12-18T05:26:28;6.73;;;4.93;;
35434;SDS011;21556;55.782;37.528;2022-12-18T05:28:57;7.00;;;5.60;;
35434;SDS011;21556;55.782;37.528;2022-12-18T05:31:23;8.17;;;5.47;;
35434;SDS011;21556;55.782;37.528;2022-12-18T05:33:49;10.17;;;5.33;;
35434;SDS011;21556;55.782;37.528;2022-12-18T05:36:15;7.73;;;5.43;;
35434;SDS011;21556;55.782;37.528;2022-12-18T05:38:40;9.47;;;5.97;;
35434;SDS011;21556;55.782;37.528;2022-12-18T05:41:08;7.97;;;5.17;;
35434;SDS011;21556;55.782;37.528;2022-12-18T05:43:35;5.72;;;4.10;;
35434;SDS011;21556;55.782;37.528;2022-12-18T05:46:05;6.20;;;3.90;;
35434;SDS011;21556;55.782;37.528;2022-12-18T05:48:32;6.10;;;4.67;;
35434;SDS011;21556;55.782;37.528;2022-12-18T05:51:06;7.57;;;5.93;;
35434;SDS011;21556;55.782;37.528;2022-12-18T05:53:34;7.97;;;5.47;;
35434;SDS011;21556;55.782;37.528;2022-12-18T05:56:03;7.50;;;6.00;;
35434;SDS011;21556;55.782;37.528;2022-12-18T05:58:31;9.30;;;5.40;;
35434;SDS011;21556;55.782;37.528;2022-12-18T06:00:58;8.77;;;5.73;;
35434;SDS011;21556;55.782;37.528;2022-12-18T06:03:31;9.23;;;5.67;;
35434;SDS011;21556;55.782;37.528;2022-12-18T06:05:57;8.20;;;5.87;;
35434;SDS011;21556;55.782;37.528;2022-12-18T06:08:23;8.67;;;5.40;;
35434;SDS011;21556;55.782;37.528;2022-12-18T06:10:49;9.00;;;5.40;;
35434;SDS011;21556;55.782;37.528;2022-12-18T06:13:18;11.27;;;5.73;;
35434;SDS011;21556;55.782;37.528;2022-12-18T06:15:46;8.20;;;5.60;;
35434;SDS011;21556;55.782;37.528;2022-12-18T06:18:15;8.10;;;6.20;;
35434;SDS011;21556;55.782;37.528;2022-12-18T06:20:41;7.37;;;5.17;;
35434;SDS011;21556;55.782;37.528;2022-12-18T06:23:07;10.73;;;6.27;;
35434;SDS011;21556;55.782;37.528;2022-12-18T06:25:36;7.80;;;5.70;;
35434;SDS011;21556;55.782;37.528;2022-12-18T06:28:03;7.90;;;5.90;;
35434;SDS011;21556;55.782;37.528;2022-12-18T06:30:29;8.67;;;5.17;;
35434;SDS011;21556;55.782;37.528;2022-12-18T06:32:55;8.63;;;5.33;;
35434;SDS011;21556;55.782;37.528;2022-12-18T06:35:20;9.87;;;5.80;;
35434;SDS011;21556;55.782;37.528;2022-12-18T06:37:46;8.17;;;5.50;;
35434;SDS011;21556;55.782;37.528;2022-12-18T06:40:12;10.27;;;6.10;;
35434;SDS011;21556;55.782;37.528;2022-12-18T06:42:38;7.83;;;5.30;;
35434;SDS011;21556;55.782;37.528;2022-12-18T06:45:05;8.23;;;5.57;;
35434;SDS011;21556;55.782;37.528;2022-12-18T06:47:31;9.03;;;5.87;;
35434;SDS011;21556;55.782;37.528;2022-12-18T06:49:57;8.07;;;5.53;;
35434;SDS011;21556;55.782;37.528;2022-12-18T06:52:24;6.50;;;4.90;;
35434;SDS011;21556;55.782;37.528;2022-12-18T06:54:50;7.27;;;5.30;;
35434;SDS011;21556;55.782;37.528;2022-12-18T06:57:16;7.27;;;5.60;;
35434;SDS011;21556;55.782;37.528;2022-12-18T06:59:42;7.70;;;5.23;;
35434;SDS011;21556;55.782;37.528;2022-12-18T07:02:10;7.33;;;4.90;;
35434;SDS011;21556;55.782;37.528;2022-12-18T07:04:38;8.50;;;6.50;;
35434;SDS011;21556;55.782;37.528;2022-12-18T07:07:04;8.97;;;5.93;;
35434;SDS011;21556;55.782;37.528;2022-12-18T07:09:30;9.73;;;6.27;;
35434;SDS011;21556;55.782;37.528;2022-12-18T07:11:55;9.20;;;5.73;;
35434;SDS011;21556;55.782;37.528;2022-12-18T07:14:21;9.80;;;6.00;;
35434;SDS011;21556;55.782;37.528;2022-12-18T07:16:47;8.87;;;6.07;;
35434;SDS011;21556;55.782;37.528;2022-12-18T07:19:13;8.00;;;5.03;;
35434;SDS011;21556;55.782;37.528;2022-12-18T07:21:39;7.43;;;5.20;;
35434;SDS011;21556;55.782;37.528;2022-12-18T07:24:05;7.73;;;6.00;;
35434;SDS011;21556;55.782;37.528;2022-12-18T07:26:31;9.50;;;5.70;;
35434;SDS011;21556;55.782;37.528;2022-12-18T07:28:57;7.63;;;4.90;;
35434;SDS011;21556;55.782;37.528;2022-12-18T07:31:23;8.60;;;6.00;;
35434;SDS011;21556;55.782;37.528;2022-12-18T07:33:50;7.17;;;5.30;;
35434;SDS011;21556;55.782;37.528;2022-12-18T07:36:16;8.47;;;5.27;;
35434;SDS011;21556;55.782;37.528;2022-12-18T07:38:43;9.77;;;6.17;;
35434;SDS011;21556;55.782;37.528;2022-12-18T07:41:10;7.57;;;6.17;;
35434;SDS011;21556;55.782;37.528;2022-12-18T07:43:37;8.00;;;5.00;;
35434;SDS011;21556;55.782;37.528;2022-12-18T07:46:04;8.07;;;5.33;;
35434;SDS011;21556;55.782;37.528;2022-12-18T07:48:31;11.23;;;5.72;;
35434;SDS011;21556;55.782;37.528;2022-12-18T07:50:58;7.90;;;5.67;;
35434;SDS011;21556;55.782;37.528;2022-12-18T07:53:31;5.70;;;4.47;;
35434;SDS011;21556;55.782;37.528;2022-12-18T07:56:02;7.47;;;5.23;;
35434;SDS011;21556;55.782;37.528;2022-12-18T07:58:30;7.30;;;5.37;;
35434;SDS011;21556;55.782;37.528;2022-12-18T08:01:09;9.43;;;5.80;;
35434;SDS011;21556;55.782;37.528;2022-12-18T08:03:37;7.05;;;4.63;;
35434;SDS011;21556;55.782;37.528;2022-12-18T08:06:05;8.02;;;5.60;;
35434;SDS011;21556;55.782;37.528;2022-12-18T08:08:33;8.83;;;6.30;;
35434;SDS011;21556;55.782;37.528;2022-12-18T08:11:00;7.73;;;5.10;;
35434;SDS011;21556;55.782;37.528;2022-12-18T08:13:26;9.80;;;6.00;;
35434;SDS011;21556;55.782;37.528;2022-12-18T08:16:00;8.20;;;5.83;;
35434;SDS011;21556;55.782;37.528;2022-12-18T08:18:29;8.53;;;5.80;;
35434;SDS011;21556;55.782;37.528;2022-12-18T08:21:06;5.33;;;3.97;;
35434;SDS011;21556;55.782;37.528;2022-12-18T08:23:35;8.30;;;5.17;;
35434;SDS011;21556;55.782;37.528;2022-12-18T08:26:01;7.37;;;5.47;;
35434;SDS011;21556;55.782;37.528;2022-12-18T08:28:37;8.83;;;5.20;;
35434;SDS011;21556;55.782;37.528;2022-12-18T08:31:03;8.80;;;5.73;;
35434;SDS011;21556;55.782;37.528;2022-12-18T08:33:29;8.87;;;5.27;;
35434;SDS011;21556;55.782;37.528;2022-12-18T08:35:56;6.73;;;5.13;;
35434;SDS011;21556;55.782;37.528;2022-12-18T08:38:24;8.57;;;4.88;;
35434;SDS011;21556;55.782;37.528;2022-12-18T08:40:53;7.50;;;4.87;;
35434;SDS011;21556;55.782;37.528;2022-12-18T08:43:24;8.03;;;4.83;;
35434;SDS011;21556;55.782;37.528;2022-12-18T08:46:08;7.23;;;5.27;;
35434;SDS011;21556;55.782;37.528;2022-12-18T08:48:34;8.07;;;5.20;;
35434;SDS011;21556;55.782;37.528;2022-12-18T08:51:01;5.90;;;4.30;;
35434;SDS011;21556;55.782;37.528;2022-12-18T08:53:27;9.97;;;5.87;;
35434;SDS011;21556;55.782;37.528;2022-12-18T08:55:53;8.40;;;4.90;;
35434;SDS011;21556;55.782;37.528;2022-12-18T08:58:22;8.03;;;5.60;;
35434;SDS011;21556;55.782;37.528;2022-12-18T09:00:48;15.93;;;5.20;;
35434;SDS011;21556;55.782;37.528;2022-12-18T09:03:16;8.53;;;5.37;;
35434;SDS011;21556;55.782;37.528;2022-12-18T09:05:45;7.72;;;5.10;;
35434;SDS011;21556;55.782;37.528;2022-12-18T09:08:11;5.80;;;4.07;;
35434;SDS011;21556;55.782;37.528;2022-12-18T09:10:47;7.27;;;5.07;;
35434;SDS011;21556;55.782;37.528;2022-12-18T09:13:17;6.67;;;4.70;;
35434;SDS011;21556;55.782;37.528;2022-12-18T09:15:54;6.05;;;3.63;;
35434;SDS011;21556;55.782;37.528;2022-12-18T09:18:21;8.97;;;5.63;;
35434;SDS011;21556;55.782;37.528;2022-12-18T09:20:49;7.05;;;4.45;;
35434;SDS011;21556;55.782;37.528;2022-12-18T09:23:17;6.83;;;4.67;;
35434;SDS011;21556;55.782;37.528;2022-12-18T09:25:43;8.03;;;5.13;;
35434;SDS011;21556;55.782;37.528;2022-12-18T09:28:13;12.30;;;5.10;;
35434;SDS011;21556;55.782;37.528;2022-12-18T09:30:41;7.33;;;4.67;;
35434;SDS011;21556;55.782;37.528;2022-12-18T09:33:12;10.07;;;4.97;;
35434;SDS011;21556;55.782;37.528;2022-12-18T09:35:39;11.67;;;3.90;;
35434;SDS011;21556;55.782;37.528;2022-12-18T09:38:06;6.33;;;3.87;;
35434;SDS011;21556;55.782;37.528;2022-12-18T09:40:51;4.97;;;3.35;;
35434;SDS011;21556;55.782;37.528;2022-12-18T09:43:24;6.93;;;5.00;;
35434;SDS011;21556;55.782;37.528;2022-12-18T09:48:59;9.57;;;4.77;;
35434;SDS011;21556;55.782;37.528;2022-12-18T09:51:28;7.33;;;4.40;;
35434;SDS011;21556;55.782;37.528;2022-12-18T09:54:01;6.37;;;4.27;;
35434;SDS011;21556;55.782;37.528;2022-12-18T09:56:31;4.97;;;2.67;;
35434;SDS011;21556;55.782;37.528;2022-12-18T09:59:03;7.37;;;4.57;;
35434;SDS011;21556;55.782;37.528;2022-12-18T10:01:31;6.43;;;4.27;;
35434;SDS011;21556;55.782;37.528;2022-12-18T10:04:11;6.57;;;4.37;;
35434;SDS011;21556;55.782;37.528;2022-12-18T10:07:00;6.03;;;4.70;;
35434;SDS011;21556;55.782;37.528;2022-12-18T10:14:23;7.87;;;4.10;;
35434;SDS011;21556;55.782;37.528;2022-12-18T10:16:59;7.73;;;4.80;;
35434;SDS011;21556;55.782;37.528;2022-12-18T10:25:16;6.30;;;4.03;;
35434;SDS011;21556;55.782;37.528;2022-12-18T10:28:29;7.80;;;4.27;;
35434;SDS011;21556;55.782;37.528;2022-12-18T10:30:59;6.57;;;4.07;;
35434;SDS011;21556;55.782;37.528;2022-12-18T10:33:28;6.43;;;4.27;;
35434;SDS011;21556;55.782;37.528;2022-12-18T10:35:55;6.40;;;4.20;;
35434;SDS011;21556;55.782;37.528;2022-12-18T10:38:22;7.90;;;4.63;;
35434;SDS011;21556;55.782;37.528;2022-12-18T10:46:18;5.87;;;4.30;;
35434;SDS011;21556;55.782;37.528;2022-12-18T10:51:23;8.40;;;4.70;;
35434;SDS011;21556;55.782;37.528;2022-12-18T10:56:54;6.87;;;4.47;;
35434;SDS011;21556;55.782;37.528;2022-12-18T10:59:53;6.77;;;4.07;;
35434;SDS011;21556;55.782;37.528;2022-12-18T11:02:28;6.68;;;4.32;;
35434;SDS011;21556;55.782;37.528;2022-12-18T11:07:56;6.37;;;4.13;;
35434;SDS011;21556;55.782;37.528;2022-12-18T11:10:30;5.93;;;4.07;;
35434;SDS011;21556;55.782;37.528;2022-12-18T11:13:17;6.70;;;4.20;;
35434;SDS011;21556;55.782;37.528;2022-12-18T11:15:46;7.03;;;4.17;;
35434;SDS011;21556;55.782;37.528;2022-12-18T11:18:20;8.93;;;4.93;;
35434;SDS011;21556;55.782;37.528;2022-12-18T11:21:08;5.67;;;3.80;;
35434;SDS011;21556;55.782;37.528;2022-12-18T11:23:37;7.50;;;4.70;;
35434;SDS011;21556;55.782;37.528;2022-12-18T11:26:12;7.53;;;3.80;;
35434;SDS011;21556;55.782;37.528;2022-12-18T11:31:32;6.57;;;3.97;;
35434;SDS011;21556;55.782;37.528;2022-12-18T11:36:38;7.38;;;3.72;;
35434;SDS011;21556;55.782;37.528;2022-12-18T11:39:11;5.87;;;3.90;;
35434;SDS011;21556;55.782;37.528;2022-12-18T11:41:59;6.87;;;4.40;;
35434;SDS011;21556;55.782;37.528;2022-12-18T11:49:42;5.50;;;4.17;;
35434;SDS011;21556;55.782;37.528;2022-12-18T11:55:58;7.10;;;4.23;;
35434;SDS011;21556;55.782;37.528;2022-12-18T12:17:55;5.93;;;3.23;;
35434;SDS011;21556;55.782;37.528;2022-12-18T12:25:48;8.43;;;3.50;;
35434;SDS011;21556;55.782;37.528;2022-12-18T12:36:13;5.03;;;3.10;;
35434;SDS011;21556;55.782;37.528;2022-12-18T12:38:52;6.77;;;3.60;;
35434;SDS011;21556;55.782;37.528;2022-12-18T12:41:25;5.87;;;3.53;;
35434;SDS011;21556;55.782;37.528;2022-12-18T12:44:17;7.43;;;3.90;;
35434;SDS011;21556;55.782;37.528;2022-12-18T12:46:49;6.13;;;3.67;;
35434;SDS011;21556;55.782;37.528;2022-12-18T12:49:25;6.00;;;3.70;;
35434;SDS011;21556;55.782;37.528;2022-12-18T12:54:54;6.33;;;3.50;;
35434;SDS011;21556;55.782;37.528;2022-12-18T12:57:30;6.50;;;3.87;;
35434;SDS011;21556;55.782;37.528;2022-12-18T13:05:32;6.30;;;3.57;;
35434;SDS011;21556;55.782;37.528;2022-12-18T13:08:07;6.30;;;3.70;;
35434;SDS011;21556;55.782;37.528;2022-12-18T13:10:46;7.50;;;3.70;;
35434;SDS011;21556;55.782;37.528;2022-12-18T13:13:16;6.30;;;4.27;;
35434;SDS011;21556;55.782;37.528;2022-12-18T13:15:49;8.67;;;5.47;;
35434;SDS011;21556;55.782;37.528;2022-12-18T13:18:31;9.23;;;4.23;;
35434;SDS011;21556;55.782;37.528;2022-12-18T13:28:18;10.20;;;5.47;;
35434;SDS011;21556;55.782;37.528;2022-12-18T13:35:53;11.67;;;6.70;;
35434;SDS011;21556;55.782;37.528;2022-12-18T13:46:29;14.70;;;7.63;;
35434;SDS011;21556;55.782;37.528;2022-12-18T13:51:39;18.00;;;7.77;;
35434;SDS011;21556;55.782;37.528;2022-12-18T13:56:58;12.83;;;6.33;;
35434;SDS011;21556;55.782;37.528;2022-12-18T13:59:25;14.77;;;7.50;;
35434;SDS011;21556;55.782;37.528;2022-12-18T14:02:07;15.63;;;8.17;;
35434;SDS011;21556;55.782;37.528;2022-12-18T14:04:38;11.93;;;7.00;;
35434;SDS011;21556;55.782;37.528;2022-12-18T14:07:05;14.20;;;7.63;;
35434;SDS011;21556;55.782;37.528;2022-12-18T14:09:45;10.67;;;5.70;;
35434;SDS011;21556;55.782;37.528;2022-12-18T14:12:18;10.13;;;5.33;;
35434;SDS011;21556;55.782;37.528;2022-12-18T14:15:31;15.00;;;6.77;;
35434;SDS011;21556;55.782;37.528;2022-12-18T14:20:48;8.97;;;5.83;;
35434;SDS011;21556;55.782;37.528;2022-12-18T14:26:39;9.90;;;5.27;;
35434;SDS011;21556;55.782;37.528;2022-12-18T14:34:32;7.50;;;4.43;;
35434;SDS011;21556;55.782;37.528;2022-12-18T14:36:58;10.80;;;4.80;;
35434;SDS011;21556;55.782;37.528;2022-12-18T14:39:24;8.90;;;4.63;;
35434;SDS011;21556;55.782;37.528;2022-12-18T14:41:51;10.23;;;4.87;;
35434;SDS011;21556;55.782;37.528;2022-12-18T14:44:18;5.43;;;3.30;;
35434;SDS011;21556;55.782;37.528;2022-12-18T14:46:44;7.30;;;4.33;;
35434;SDS011;21556;55.782;37.528;2022-12-18T14:49:29;6.40;;;4.07;;
35434;SDS011;21556;55.782;37.528;2022-12-18T14:52:00;6.80;;;3.20;;
35434;SDS011;21556;55.782;37.528;2022-12-18T14:54:29;7.73;;;4.03;;
35434;SDS011;21556;55.782;37.528;2022-12-18T14:56:59;8.87;;;4.37;;
35434;SDS011;21556;55.782;37.528;2022-12-18T14:59:28;5.27;;;2.50;;
35434;SDS011;21556;55.782;37.528;2022-12-18T15:04:26;5.33;;;3.40;;
35434;SDS011;21556;55.782;37.528;2022-12-18T15:12:43;6.43;;;3.87;;
35434;SDS011;21556;55.782;37.528;2022-12-18T15:20:52;7.17;;;4.17;;
35434;SDS011;21556;55.782;37.528;2022-12-18T15:23:21;5.83;;;3.73;;
35434;SDS011;21556;55.782;37.528;2022-12-18T15:25:56;5.23;;;4.03;;
35434;SDS011;21556;55.782;37.528;2022-12-18T15:28:38;3.10;;;2.00;;
35434;SDS011;21556;55.782;37.528;2022-12-18T15:36:18;6.40;;;4.07;;
35434;SDS011;21556;55.782;37.528;2022-12-18T15:38:49;10.60;;;4.47;;
35434;SDS011;21556;55.782;37.528;2022-12-18T15:41:16;10.33;;;6.33;;
35434;SDS011;21556;55.782;37.528;2022-12-18T15:46:13;5.73;;;4.17;;
35434;SDS011;21556;55.782;37.528;2022-12-18T15:48:45;6.80;;;4.20;;
35434;SDS011;21556;55.782;37.528;2022-12-18T15:51:16;7.95;;;4.43;;
35434;SDS011;21556;55.782;37.528;2022-12-18T15:53:46;5.47;;;3.80;;
35434;SDS011;21556;55.782;37.528;2022-12-18T15:56:14;6.20;;;4.13;;
35434;SDS011;21556;55.782;37.528;2022-12-18T15:59:00;5.93;;;4.30;;
35434;SDS011;21556;55.782;37.528;2022-12-18T16:01:27;6.77;;;4.63;;
35434;SDS011;21556;55.782;37.528;2022-12-18T16:03:57;7.53;;;3.83;;
35434;SDS011;21556;55.782;37.528;2022-12-18T16:06:23;7.27;;;4.73;;
35434;SDS011;21556;55.782;37.528;2022-12-18T16:08:49;7.37;;;4.00;;
35434;SDS011;21556;55.782;37.528;2022-12-18T16:11:26;6.80;;;4.30;;
35434;SDS011;21556;55.782;37.528;2022-12-18T16:14:15;4.90;;;3.25;;
35434;SDS011;21556;55.782;37.528;2022-12-18T16:16:42;5.47;;;3.90;;
35434;SDS011;21556;55.782;37.528;2022-12-18T16:19:08;6.60;;;3.73;;
35434;SDS011;21556;55.782;37.528;2022-12-18T16:21:34;6.07;;;4.47;;
35434;SDS011;21556;55.782;37.528;2022-12-18T16:24:01;8.90;;;5.67;;
35434;SDS011;21556;55.782;37.528;2022-12-18T16:26:27;7.47;;;4.67;;
35434;SDS011;21556;55.782;37.528;2022-12-18T16:28:53;6.67;;;4.10;;
35434;SDS011;21556;55.782;37.528;2022-12-18T16:31:19;5.60;;;4.03;;
35434;SDS011;21556;55.782;37.528;2022-12-18T16:33:44;6.73;;;4.83;;
35434;SDS011;21556;55.782;37.528;2022-12-18T16:36:10;6.97;;;4.10;;
35434;SDS011;21556;55.782;37.528;2022-12-18T16:38:36;6.70;;;4.27;;
35434;SDS011;21556;55.782;37.528;2022-12-18T16:41:04;4.80;;;3.63;;
35434;SDS011;21556;55.782;37.528;2022-12-18T16:43:59;6.70;;;4.43;;
35434;SDS011;21556;55.782;37.528;2022-12-18T16:46:25;5.87;;;4.27;;
35434;SDS011;21556;55.782;37.528;2022-12-18T16:48:52;8.57;;;4.83;;
35434;SDS011;21556;55.782;37.528;2022-12-18T16:51:18;7.30;;;5.40;;
35434;SDS011;21556;55.782;37.528;2022-12-18T16:53:44;6.07;;;4.37;;
35434;SDS011;21556;55.782;37.528;2022-12-18T16:56:10;7.37;;;4.73;;
35434;SDS011;21556;55.782;37.528;2022-12-18T16:58:35;7.33;;;5.10;;
35434;SDS011;21556;55.782;37.528;2022-12-18T17:01:06;11.00;;;5.40;;
35434;SDS011;21556;55.782;37.528;2022-12-18T17:03:43;10.30;;;6.00;;
35434;SDS011;21556;55.782;37.528;2022-12-18T17:07:19;7.27;;;4.97;;
35434;SDS011;21556;55.782;37.528;2022-12-18T17:10:45;7.20;;;4.68;;
35434;SDS011;21556;55.782;37.528;2022-12-18T17:26:13;6.57;;;4.23;;
35434;SDS011;21556;55.782;37.528;2022-12-18T17:47:45;6.30;;;4.27;;
35434;SDS011;21556;55.782;37.528;2022-12-18T17:55:41;6.23;;;4.13;;
35434;SDS011;21556;55.782;37.528;2022-12-18T17:59:17;9.47;;;6.17;;
35434;SDS011;21556;55.782;37.528;2022-12-18T18:23:28;7.13;;;4.50;;
35434;SDS011;21556;55.782;37.528;2022-12-18T18:26:06;8.93;;;5.47;;
35434;SDS011;21556;55.782;37.528;2022-12-18T18:28:34;9.77;;;5.80;;
35434;SDS011;21556;55.782;37.528;2022-12-18T18:31:07;9.25;;;5.57;;
35434;SDS011;21556;55.782;37.528;2022-12-18T18:33:33;8.37;;;5.90;;
35434;SDS011;21556;55.782;37.528;2022-12-18T18:35:59;8.10;;;5.33;;
35434;SDS011;21556;55.782;37.528;2022-12-18T18:38:25;8.13;;;5.40;;
35434;SDS011;21556;55.782;37.528;2022-12-18T18:41:00;10.37;;;6.17;;
35434;SDS011;21556;55.782;37.528;2022-12-18T18:43:26;11.50;;;7.47;;
35434;SDS011;21556;55.782;37.528;2022-12-18T18:45:58;11.57;;;7.00;;
35434;SDS011;21556;55.782;37.528;2022-12-18T18:48:25;12.10;;;5.87;;
35434;SDS011;21556;55.782;37.528;2022-12-18T18:50:55;10.83;;;6.00;;